KLGB

Long Beach /Daugherty Field/ Airport

Code ICAO KLGB
Code IATA LGB
Nom Long Beach /Daugherty Field/ Airport
Emplacement Long Beach, California, US
Élévation 60 pieds / 18.3 mètres
Latitude 33.81769943
Longitude -118.15200040
METAR KLGB 270253Z 30007KT 10SM -RA BKN035 OVC060 16/11 A2997 RMK AO2 RAB42 SLP148 P0000 60000 T01560111 51002
Informations extras Afficher cartes
Piste Longueur Largeur Surface Élévation
16L 4267 ft 75 ft ASP 40 ft
16R 4470 ft 75 ft ASP 50 ft
34R 4267 ft 75 ft ASP 33 ft
34L 4470 ft 75 ft ASP 41 ft